MST,Max TemperatureF,Mean TemperatureF,Min TemperatureF,Max Dew PointF,MeanDew PointF,Min DewpointF,Max Humidity, Mean Humidity, Min Humidity, Max Sea Level PressureIn, Mean Sea Level PressureIn, Min Sea Level PressureIn, Max VisibilityMiles, Mean VisibilityMiles, Min VisibilityMiles, Max Wind SpeedMPH, Mean Wind SpeedMPH, Max Gust SpeedMPH,PrecipitationIn, CloudCover, Events, WindDirDegrees
2013-11-1,51,41,31,37,31,26,85,62,39,30.14,29.95,29.72,10,10,10,43,18,55,T,3,,304
2013-11-2,61,44,26,30,26,23,78,53,27,30.16,29.98,29.62,10,10,10,15,9,22,0.00,0,,203
2013-11-3,58,47,35,36,32,28,79,61,43,29.78,29.60,29.52,10,10,10,21,8,26,0.00,1,,284
2013-11-4,48,39,30,31,24,20,78,55,31,30.18,30.02,29.83,10,10,10,20,8,32,0.00,4,,303
2013-11-5,34,27,20,29,26,19,92,85,78,30.25,30.18,30.11,10,3,0,16,6,20,0.39,8,Fog-Snow,50
2013-11-6,37,29,20,28,23,18,96,83,70,30.37,30.20,30.10,10,6,1,17,10,22,T,5,Snow,248
2013-11-7,46,34,22,32,27,20,96,77,58,30.43,30.27,29.88,10,10,10,14,6,16,0.00,1,,209
2013-11-8,57,45,33,37,31,28,82,60,38,29.96,29.76,29.60,10,10,10,43,11,54,0.00,1,,283
2013-11-9,51,38,24,32,26,21,81,57,33,30.37,30.21,29.98,10,10,10,24,10,29,0.00,3,,310
2013-11-10,59,41,23,33,27,18,88,62,36,30.34,30.21,30.10,10,10,10,20,8,25,0.00,2,,30
2013-11-11,28,20,12,18,11,6,84,67,50,30.84,30.62,30.27,10,8,1,21,6,25,0.01,5,Snow,20
2013-11-12,52,33,13,32,23,8,92,69,46,30.79,30.52,30.19,10,10,10,15,5,18,0.00,0,,177
2013-11-13,63,45,26,38,32,26,92,62,32,30.17,30.05,29.96,10,10,10,15,7,18,T,2,,283
2013-11-14,58,42,26,40,30,23,92,63,33,30.00,29.92,29.82,10,10,10,22,8,26,0.01,1,Rain,295
2013-11-15,57,40,23,36,28,20,88,66,43,29.78,29.56,29.39,10,10,10,18,5,22,0.00,1,,275
2013-11-16,49,36,22,33,28,21,92,73,53,29.43,29.35,29.29,10,10,10,15,6,20,0.00,1,,284
2013-11-17,43,33,22,34,26,20,96,73,49,30.08,29.78,29.42,10,10,10,26,12,36,T,4,Rain,290
2013-11-18,55,39,22,26,21,17,81,54,26,30.16,30.07,29.91,10,10,10,13,5,17,0.00,0,,191
2013-11-19,65,44,23,34,27,19,82,51,20,29.87,29.66,29.53,10,10,7,26,7,30,0.00,0,,259
2013-11-20,39,28,16,28,20,8,92,76,59,30.39,30.00,29.67,10,9,2,31,13,39,T,4,Snow,343
2013-11-21,19,12,4,9,4,0,83,64,45,30.78,30.60,30.34,10,9,2,25,12,32,T,5,Snow,323
2013-11-22,39,22,5,13,8,1,80,54,27,30.80,30.68,30.60,10,10,10,17,10,22,0.00,2,,320
2013-11-23,31,22,13,14,10,2,80,65,49,30.87,30.71,30.42,10,10,10,15,7,18,0.00,4,,114
2013-11-24,48,34,19,23,19,12,81,58,34,30.38,30.12,29.97,10,10,10,25,10,32,0.00,1,,242
2013-11-25,45,35,24,23,19,15,81,59,37,30.35,30.25,30.07,10,10,10,23,11,29,0.00,1,,309
2013-11-26,32,22,12,19,11,5,74,54,33,30.57,30.46,30.36,10,10,10,22,8,28,0.00,3,,356
2013-11-27,55,34,13,27,18,7,80,55,29,30.32,30.12,29.94,10,10,10,23,10,29,0.00,0,,346
2013-11-28,31,25,18,20,18,14,84,74,63,30.43,30.33,30.21,10,10,10,12,5,14,0.00,5,,91
2013-11-29,56,36,15,29,21,11,92,62,32,30.18,30.09,30.01,10,10,10,15,6,18,0.00,0,,283
2013-11-30,50,35,19,28,23,16,84,63,42,30.23,30.15,30.06,10,10,10,10,4,13,0.00,3,,308